Time;durP1;ratioP1;P1;durP2;ratioP2;P2;SDS_P1;SDS_P2;PMS_P1;PMS_P2;Temp;Humidity;BMP_temperature;BMP_pressure;BME280_temperature;BME280_humidity;BME280_pressure;Samples;Min_cycle;Max_cycle;Signal;HPM_P1;HPM_P2
2023/03/19 00:01:35;;;;;;;19.55;6.75;;;;;;;1.14;80.36;95185.72;5027358;28;20262;-76
2023/03/19 00:04:01;;;;;;;10.65;5.65;;;;;;;1.10;81.43;95182.75;5027001;28;20678;-75
2023/03/19 00:06:28;;;;;;;12.00;5.90;;;;;;;1.17;81.44;95183.38;5027032;28;20208;-75
2023/03/19 00:08:55;;;;;;;16.02;6.25;;;;;;;1.08;81.10;95176.91;5026679;28;20208;-75
2023/03/19 00:11:23;;;;;;;7.47;5.53;;;;;;;1.06;82.17;95179.00;5030545;28;20273;-75
2023/03/19 00:13:50;;;;;;;13.25;6.70;;;;;;;0.97;83.28;95177.84;5030272;28;20205;-74
2023/03/19 00:16:17;;;;;;;10.60;5.13;;;;;;;1.07;82.77;95172.63;5029720;28;20255;-74
2023/03/19 00:18:43;;;;;;;12.25;5.47;;;;;;;1.06;82.16;95181.69;5030090;28;20228;-75
2023/03/19 00:21:10;;;;;;;9.23;4.55;;;;;;;1.09;82.54;95175.84;5030271;28;20279;-74
2023/03/19 00:23:37;;;;;;;8.32;4.65;;;;;;;1.13;81.88;95168.09;5030428;28;20643;-74
2023/03/19 00:26:04;;;;;;;19.75;6.18;;;;;;;1.11;82.10;95168.34;5030287;28;20262;-74
2023/03/19 00:28:33;;;;;;;10.85;5.50;;;;;;;1.02;82.36;95157.38;5029839;28;20204;-74
2023/03/19 00:31:07;;;;;;;10.45;6.13;;;;;;;1.01;82.09;95158.41;5029818;28;20208;-74
2023/03/19 00:33:34;;;;;;;10.45;5.68;;;;;;;0.93;82.19;95160.75;5030093;28;20238;-74
2023/03/19 00:36:00;;;;;;;12.07;5.35;;;;;;;0.91;83.82;95157.53;5029817;28;20619;-74
2023/03/19 00:38:28;;;;;;;12.52;4.60;;;;;;;0.97;83.03;95156.50;5029848;28;20278;-74
2023/03/19 00:40:54;;;;;;;14.18;6.07;;;;;;;0.91;82.60;95157.53;5029432;28;20220;-74
2023/03/19 00:43:21;;;;;;;11.38;5.10;;;;;;;0.81;83.15;95152.94;5029801;28;20216;-74
2023/03/19 00:45:49;;;;;;;12.88;5.40;;;;;;;0.83;83.17;95150.78;5030109;28;20196;-75
2023/03/19 00:48:16;;;;;;;13.75;5.93;;;;;;;0.74;83.41;95141.66;5016590;28;20680;-75
2023/03/19 00:50:43;;;;;;;12.38;5.85;;;;;;;0.83;83.10;95148.13;5030309;28;20220;-75
2023/03/19 00:53:10;;;;;;;11.48;5.70;;;;;;;0.77;83.40;95141.16;5030196;28;20204;-73
2023/03/19 00:55:37;;;;;;;13.02;6.43;;;;;;;0.78;83.71;95128.63;5030011;28;20210;-74
2023/03/19 00:58:05;;;;;;;13.82;5.88;;;;;;;0.86;83.68;95152.97;5029796;28;20366;-73
2023/03/19 01:00:32;;;;;;;11.63;5.45;;;;;;;0.74;83.74;95143.50;5029688;28;20655;-76
2023/03/19 01:03:01;;;;;;;9.55;5.07;;;;;;;0.76;83.72;95138.75;5029843;28;20204;-75
2023/03/19 01:05:28;;;;;;;11.27;4.85;;;;;;;0.68;83.00;95132.78;5029967;28;20204;-77
2023/03/19 01:07:55;;;;;;;13.38;5.30;;;;;;;0.63;83.11;95129.28;5029609;28;20610;-76
2023/03/19 01:10:23;;;;;;;9.88;4.97;;;;;;;0.60;83.61;95135.94;5029732;28;20219;-78
2023/03/19 01:12:50;;;;;;;16.15;4.85;;;;;;;0.66;82.87;95140.25;5029480;28;20208;-76
2023/03/19 01:15:17;;;;;;;15.40;5.93;;;;;;;0.75;82.03;95137.94;5029790;28;20204;-76
2023/03/19 01:17:44;;;;;;;10.52;5.63;;;;;;;0.65;82.78;95133.31;5029159;28;20204;-76
2023/03/19 01:20:14;;;;;;;8.60;5.13;;;;;;;0.81;81.78;95131.59;5028583;28;20204;-76
2023/03/19 01:22:41;;;;;;;16.13;5.75;;;;;;;0.61;82.48;95132.22;5029031;28;20232;-76
2023/03/19 01:25:10;;;;;;;10.63;5.32;;;;;;;0.59;83.47;95121.00;5029154;28;20255;-76
2023/03/19 01:27:36;;;;;;;16.58;9.73;;;;;;;0.65;83.14;95121.84;5029534;28;20258;-76
2023/03/19 01:30:03;;;;;;;19.58;10.05;;;;;;;0.63;81.53;95124.78;5029244;28;20212;-76
2023/03/19 01:32:31;;;;;;;19.92;9.70;;;;;;;0.49;82.50;95123.56;5028759;28;20212;-76
2023/03/19 01:34:58;;;;;;;16.35;10.18;;;;;;;0.49;83.38;95126.25;5028818;28;20200;-76
2023/03/19 01:37:26;;;;;;;17.55;10.27;;;;;;;0.56;82.70;95126.03;5028317;28;20266;-76
2023/03/19 01:39:53;;;;;;;17.98;10.13;;;;;;;0.58;82.59;95127.38;5028860;28;20251;-76
2023/03/19 01:42:19;;;;;;;20.48;10.65;;;;;;;0.53;83.50;95130.03;5028968;28;20286;-76
2023/03/19 01:44:46;;;;;;;15.93;9.88;;;;;;;0.61;83.26;95126.88;5029280;28;20208;-76
2023/03/19 01:47:17;;;;;;;17.98;9.80;;;;;;;0.70;82.96;95125.34;5028866;28;20200;-76
2023/03/19 01:49:47;;;;;;;17.67;9.80;;;;;;;0.71;83.88;95126.16;5028836;28;20208;-76
2023/03/19 01:52:15;;;;;;;12.32;5.50;;;;;;;0.81;85.18;95125.47;5028927;28;20617;-76
2023/03/19 01:54:44;;;;;;;9.07;5.30;;;;;;;0.84;85.47;95131.06;5028595;28;20291;-77
2023/03/19 01:57:14;;;;;;;10.75;5.30;;;;;;;0.83;84.48;95133.97;5028644;28;20258;-75
2023/03/19 01:59:43;;;;;;;15.40;9.20;;;;;;;0.79;83.69;95132.91;5015584;28;20239;-75
2023/03/19 02:02:16;;;;;;;17.17;9.52;;;;;;;0.80;83.76;95132.66;5028415;28;20200;-75
2023/03/19 02:04:46;;;;;;;17.33;9.07;;;;;;;0.70;83.34;95141.34;5028735;28;20220;-74
2023/03/19 02:07:14;;;;;;;15.35;8.88;;;;;;;0.54;83.84;95130.81;5028485;28;20220;-75
2023/03/19 02:09:43;;;;;;;14.68;9.30;;;;;;;0.55;84.62;95133.22;5028829;28;20617;-75
2023/03/19 02:12:11;;;;;;;16.13;9.35;;;;;;;0.57;85.20;95130.28;5028778;28;20211;-75
2023/03/19 02:14:38;;;;;;;13.95;7.82;;;;;;;0.64;84.96;95136.25;5028484;28;20227;-75
2023/03/19 02:17:05;;;;;;;13.65;8.38;;;;;;;0.64;84.51;95131.72;5028389;28;20204;-75
2023/03/19 02:19:49;;;;;;;14.20;9.02;;;;;;;0.63;83.79;95129.28;5028259;28;20228;-75
2023/03/19 02:22:21;;;;;;;12.13;7.85;;;;;;;0.53;83.95;95124.69;5027935;28;20302;-75
2023/03/19 02:24:53;;;;;;;13.70;7.93;;;;;;;0.36;83.83;95123.97;5028004;28;20236;-75
2023/03/19 02:27:22;;;;;;;16.63;8.55;;;;;;;0.37;83.80;95130.91;5028424;28;20274;-75
2023/03/19 02:29:49;;;;;;;7.85;4.63;;;;;;;0.24;84.71;95132.13;5028487;28;20212;-74
2023/03/19 02:32:16;;;;;;;9.52;3.63;;;;;;;0.26;84.60;95129.22;5028099;28;20208;-74
2023/03/19 02:34:43;;;;;;;6.75;3.78;;;;;;;0.26;84.96;95129.22;5028052;28;20223;-74
2023/03/19 02:37:16;;;;;;;7.93;4.00;;;;;;;0.27;85.08;95138.81;5028195;28;20204;-75
2023/03/19 02:39:54;;;;;;;9.65;4.43;;;;;;;0.31;85.41;95129.25;5027881;28;20768;-75
2023/03/19 02:42:25;;;;;;;6.47;3.67;;;;;;;0.39;84.54;95147.47;5027937;28;20239;-74
2023/03/19 02:44:51;;;;;;;6.63;3.55;;;;;;;0.31;84.18;95142.56;5027600;28;20201;-75
2023/03/19 02:47:18;;;;;;;11.85;4.78;;;;;;;0.44;84.64;95142.16;5028358;28;20266;-73
2023/03/19 02:49:45;;;;;;;11.40;3.95;;;;;;;0.39;85.20;95138.66;5027552;28;20629;-74
2023/03/19 02:52:12;;;;;;;9.02;4.72;;;;;;;0.31;85.62;95143.38;5027418;28;20634;-75
2023/03/19 02:54:39;;;;;;;9.93;3.45;;;;;;;0.46;85.71;95133.94;5027062;28;20200;-74
2023/03/19 02:57:06;;;;;;;7.55;3.70;;;;;;;0.42;85.61;95149.59;5027489;28;20215;-75
2023/03/19 02:59:34;;;;;;;8.30;4.30;;;;;;;0.43;84.73;95145.88;5027406;28;20243;-74
2023/03/19 03:02:01;;;;;;;7.60;4.25;;;;;;;0.34;84.95;95147.41;5027871;28;20247;-76
2023/03/19 03:04:28;;;;;;;6.07;3.10;;;;;;;0.25;85.11;95149.72;5027455;28;20211;-76
2023/03/19 03:06:55;;;;;;;7.93;4.20;;;;;;;0.30;85.65;95146.28;5027827;28;20745;-75
2023/03/19 03:09:22;;;;;;;5.07;3.00;;;;;;;0.19;84.61;95147.22;5014533;28;20204;-76
2023/03/19 03:11:49;;;;;;;8.27;4.22;;;;;;;0.11;84.14;95147.69;5027679;28;20200;-76
2023/03/19 03:14:16;;;;;;;7.32;4.38;;;;;;;0.08;84.17;95151.66;5014056;28;20258;-76
2023/03/19 03:16:44;;;;;;;13.10;4.82;;;;;;;0.03;82.95;95151.56;5027024;28;20204;-75
2023/03/19 03:19:11;;;;;;;6.78;4.45;;;;;;;-0.03;83.28;95155.25;5027208;28;20714;-75
2023/03/19 03:21:38;;;;;;;11.40;3.97;;;;;;;-0.09;83.87;95159.69;5027013;28;20311;-76
2023/03/19 03:24:06;;;;;;;10.82;4.18;;;;;;;-0.18;85.42;95165.72;5026861;28;20357;-75
2023/03/19 03:26:33;;;;;;;11.10;5.10;;;;;;;-0.25;86.81;95165.88;5027327;28;20710;-75
2023/03/19 03:29:00;;;;;;;16.50;5.07;;;;;;;-0.26;87.58;95169.59;5027905;28;20200;-76
2023/03/19 03:31:27;;;;;;;12.13;6.47;;;;;;;-0.30;87.59;95163.16;5027287;28;20204;-74
2023/03/19 03:33:55;;;;;;;11.20;6.47;;;;;;;-0.25;88.16;95165.88;5027655;28;20204;-75
2023/03/19 03:36:22;;;;;;;13.75;5.88;;;;;;;-0.18;87.90;95169.19;5027123;28;20675;-75
2023/03/19 03:38:49;;;;;;;15.00;6.18;;;;;;;0.02;87.05;95170.47;5027108;28;20318;-75
2023/03/19 03:41:16;;;;;;;12.55;5.32;;;;;;;0.10;86.97;95172.72;5027182;28;20201;-77
2023/03/19 03:43:42;;;;;;;12.63;5.80;;;;;;;0.03;86.86;95166.75;5027455;28;20258;-77
2023/03/19 03:46:09;;;;;;;16.67;6.45;;;;;;;-0.06;86.09;95177.84;5031261;28;20204;-76
2023/03/19 03:48:36;;;;;;;15.63;5.53;;;;;;;-0.06;86.27;95175.19;5031000;28;20662;-76
2023/03/19 03:51:04;;;;;;;8.23;4.55;;;;;;;-0.01;85.98;95177.13;5030857;28;20205;-75
2023/03/19 03:53:31;;;;;;;10.40;5.15;;;;;;;-0.12;85.92;95181.50;5031178;28;20877;-76
2023/03/19 03:55:58;;;;;;;9.05;4.35;;;;;;;-0.05;86.95;95183.97;5030815;28;20628;-76
2023/03/19 03:58:24;;;;;;;14.55;5.10;;;;;;;0.06;87.32;95182.25;5030467;28;20714;-76
2023/03/19 04:00:53;;;;;;;10.68;5.40;;;;;;;0.18;87.14;95190.91;5030935;28;20239;-76
2023/03/19 04:03:21;;;;;;;13.50;4.72;;;;;;;0.26;87.14;95185.16;5030796;28;20651;-76
2023/03/19 04:05:47;;;;;;;11.70;5.53;;;;;;;0.33;87.20;95177.75;5030826;28;20590;-76
2023/03/19 04:08:16;;;;;;;15.82;5.22;;;;;;;0.32;86.58;95181.47;5030663;28;20919;-76
2023/03/19 04:10:43;;;;;;;9.85;5.20;;;;;;;0.18;86.50;95172.25;5030558;28;20215;-76
2023/03/19 04:13:10;;;;;;;8.32;4.68;;;;;;;0.25;85.96;95170.22;5031050;28;20218;-77
2023/03/19 04:15:37;;;;;;;7.35;3.70;;;;;;;0.04;85.76;95173.69;5030540;28;20243;-76
2023/03/19 04:18:04;;;;;;;11.15;5.55;;;;;;;-0.03;86.48;95169.38;5030269;28;20213;-76
2023/03/19 04:20:31;;;;;;;9.70;4.43;;;;;;;0.03;86.92;95172.06;5029972;28;20240;-75
2023/03/19 04:22:57;;;;;;;9.10;5.07;;;;;;;0.06;86.78;95164.41;5030493;28;20266;-74
2023/03/19 04:25:26;;;;;;;11.82;5.78;;;;;;;0.21;85.72;95177.09;5030121;28;20236;-74
2023/03/19 04:27:52;;;;;;;10.02;4.50;;;;;;;0.22;85.07;95176.03;5030792;28;20262;-75
2023/03/19 04:30:19;;;;;;;9.65;4.32;;;;;;;0.19;84.97;95176.53;5030409;28;20207;-75
2023/03/19 04:32:46;;;;;;;7.22;3.83;;;;;;;0.03;85.35;95177.41;5030299;28;20208;-75
2023/03/19 04:35:13;;;;;;;13.30;6.25;;;;;;;-0.07;85.74;95173.56;5030217;28;20254;-76
2023/03/19 04:37:40;;;;;;;8.93;4.20;;;;;;;-0.01;85.49;95185.09;5030311;28;20200;-75
2023/03/19 04:40:08;;;;;;;9.93;4.80;;;;;;;-0.11;85.79;95188.41;5030634;28;20243;-76
2023/03/19 04:42:36;;;;;;;19.95;10.30;;;;;;;-0.04;86.37;95193.59;5030520;28;20204;-76
2023/03/19 04:45:03;;;;;;;16.65;10.30;;;;;;;0.09;86.76;95192.41;5030592;28;20200;-76
2023/03/19 04:47:30;;;;;;;22.42;11.35;;;;;;;0.20;87.29;95186.13;5030334;28;20224;-77
2023/03/19 04:49:56;;;;;;;17.48;10.52;;;;;;;0.29;86.06;95187.28;5030099;28;20208;-76
2023/03/19 04:52:23;;;;;;;25.30;11.93;;;;;;;0.58;84.99;95179.88;5030272;28;20258;-75
2023/03/19 04:54:50;;;;;;;19.63;11.10;;;;;;;1.52;83.80;95166.78;5029140;28;20200;-76
2023/03/19 04:57:17;;;;;;;16.48;5.75;;;;;;;2.90;78.83;95160.88;5030256;28;20208;-76
2023/03/19 04:59:45;;;;;;;10.48;5.72;;;;;;;4.13;73.75;95160.47;5029371;28;20949;-77
2023/03/19 05:02:12;;;;;;;11.68;5.75;;;;;;;5.35;68.50;95148.97;5030119;28;20247;-76
2023/03/19 05:04:39;;;;;;;19.17;7.38;;;;;;;6.46;64.11;95141.66;5030117;28;20201;-74
2023/03/19 05:07:06;;;;;;;16.27;6.95;;;;;;;7.23;60.92;95149.47;5030256;28;20208;-77
2023/03/19 05:09:33;;;;;;;16.17;6.97;;;;;;;7.36;58.89;95151.41;5030939;28;20204;-77
2023/03/19 05:12:00;;;;;;;14.90;6.50;;;;;;;7.77;58.36;95148.84;5030134;28;20287;-77
2023/03/19 05:14:26;;;;;;;16.27;7.32;;;;;;;8.45;56.73;95143.53;5030298;28;20212;-77
2023/03/19 05:16:55;;;;;;;14.25;5.30;;;;;;;7.88;58.94;95146.75;5030371;28;20618;-78
2023/03/19 05:19:22;;;;;;;15.73;7.25;;;;;;;8.80;56.80;95143.84;5029910;28;20301;-76
2023/03/19 05:21:48;;;;;;;13.43;6.70;;;;;;;9.35;55.08;95139.09;5029275;28;20327;-76
2023/03/19 05:24:15;;;;;;;12.07;6.03;;;;;;;9.31;54.14;95138.09;5029176;28;20759;-76
2023/03/19 05:26:42;;;;;;;13.05;6.53;;;;;;;10.13;51.31;95143.03;5029118;28;20208;-76
2023/03/19 05:29:10;;;;;;;9.55;6.30;;;;;;;10.48;49.79;95127.78;5029366;28;20219;-76
2023/03/19 05:31:37;;;;;;;14.95;7.95;;;;;;;10.48;48.85;95133.19;5029393;28;20695;-78
2023/03/19 05:34:05;;;;;;;14.10;8.02;;;;;;;9.43;49.48;95142.97;5027157;28;20612;-76
2023/03/19 05:36:33;;;;;;;21.80;7.57;;;;;;;8.30;52.48;95151.09;5028984;28;20200;-76
2023/03/19 05:39:00;;;;;;;6.57;3.97;;;;;;;8.77;49.59;95147.16;5029411;28;20205;-77
2023/03/19 05:41:27;;;;;;;11.45;4.53;;;;;;;8.65;49.67;95154.97;5027184;28;20227;-76
2023/03/19 05:43:54;;;;;;;8.98;2.90;;;;;;;8.19;49.64;95156.69;5029773;28;20208;-75
2023/03/19 05:46:21;;;;;;;5.80;3.20;;;;;;;8.57;49.54;95151.09;5029269;28;20266;-76
2023/03/19 05:48:48;;;;;;;5.70;2.30;;;;;;;7.92;50.53;95155.88;5026272;28;20208;-75
2023/03/19 05:51:16;;;;;;;6.85;3.08;;;;;;;7.67;51.25;95155.19;5028769;28;20203;-76
2023/03/19 05:53:43;;;;;;;4.43;3.03;;;;;;;8.46;51.12;95161.31;5028763;28;20200;-76
2023/03/19 05:56:10;;;;;;;4.60;2.78;;;;;;;10.28;47.21;95155.41;5028923;28;20204;-74
2023/03/19 05:58:37;;;;;;;10.50;4.93;;;;;;;9.81;46.97;95149.59;5029059;28;20574;-75
2023/03/19 06:01:04;;;;;;;7.72;3.92;;;;;;;10.13;45.50;95150.38;5028894;28;20727;-78
2023/03/19 06:03:31;;;;;;;6.05;3.45;;;;;;;10.14;51.34;95151.97;5028591;28;20683;-76
2023/03/19 06:05:58;;;;;;;7.53;4.10;;;;;;;10.61;50.72;95143.09;5029026;28;20621;-75
2023/03/19 06:08:26;;;;;;;8.80;3.97;;;;;;;10.06;58.37;95153.53;5028571;28;20204;-76
2023/03/19 06:10:53;;;;;;;8.60;4.72;;;;;;;10.35;46.92;95142.22;5029109;28;20777;-76
2023/03/19 06:13:20;;;;;;;8.90;4.53;;;;;;;9.76;47.27;95144.28;5029023;28;20205;-75
2023/03/19 06:15:47;;;;;;;7.22;4.22;;;;;;;9.28;50.64;95149.53;5029189;28;20231;-76
2023/03/19 06:18:14;;;;;;;5.38;3.35;;;;;;;8.61;49.69;95160.19;5028989;28;20259;-79
2023/03/19 06:20:41;;;;;;;6.45;3.90;;;;;;;8.38;50.12;95156.59;5028755;28;20236;-79
2023/03/19 06:23:08;;;;;;;8.68;3.95;;;;;;;8.87;49.49;95145.06;5028041;28;20306;-78
2023/03/19 06:25:36;;;;;;;6.00;3.72;;;;;;;9.86;47.54;95138.63;5028422;28;20228;-78
2023/03/19 06:28:03;;;;;;;11.32;3.92;;;;;;;10.43;46.94;95146.88;5028125;28;20204;-77
2023/03/19 06:30:30;;;;;;;6.97;4.15;;;;;;;9.27;47.55;95156.84;5028630;28;20262;-76
2023/03/19 06:32:57;;;;;;;12.27;4.20;;;;;;;9.91;46.98;95152.03;5028498;28;20295;-77
2023/03/19 06:35:24;;;;;;;11.27;5.13;;;;;;;10.49;46.02;95156.47;5029291;28;20277;-77
2023/03/19 06:37:51;;;;;;;10.05;5.60;;;;;;;9.93;46.00;95155.22;5028967;28;20235;-76
2023/03/19 06:40:18;;;;;;;7.28;3.22;;;;;;;10.33;45.91;95163.41;5028944;28;20227;-76
2023/03/19 06:42:47;;;;;;;18.02;4.93;;;;;;;11.21;44.37;95155.94;5028449;28;20685;-77
2023/03/19 06:45:15;;;;;;;7.03;3.17;;;;;;;10.28;45.40;95161.63;5028410;28;20266;-77
2023/03/19 06:47:42;;;;;;;9.20;5.10;;;;;;;10.45;45.54;95152.78;5028111;28;20219;-76
2023/03/19 06:50:09;;;;;;;7.65;4.80;;;;;;;10.94;44.12;95158.94;5028285;28;20273;-77
2023/03/19 06:52:36;;;;;;;6.68;4.03;;;;;;;10.62;44.59;95169.09;5028076;28;20234;-76
2023/03/19 06:55:04;;;;;;;10.45;4.47;;;;;;;11.40;43.65;95178.13;5028480;28;20266;-74
2023/03/19 06:57:30;;;;;;;9.70;4.55;;;;;;;12.05;41.84;95174.41;5027997;28;20620;-75
2023/03/19 06:59:59;;;;;;;7.93;4.50;;;;;;;11.19;42.52;95177.19;5028126;28;20236;-77
2023/03/19 07:02:26;;;;;;;9.45;4.45;;;;;;;10.44;44.80;95180.97;5029045;28;20207;-74
2023/03/19 07:04:53;;;;;;;13.13;4.75;;;;;;;11.63;42.71;95180.69;5028642;28;20219;-77
2023/03/19 07:07:19;;;;;;;7.13;4.00;;;;;;;11.28;42.94;95169.84;5028049;28;20208;-77
2023/03/19 07:09:46;;;;;;;12.40;4.68;;;;;;;11.41;42.32;95173.50;5027876;28;20280;-79
2023/03/19 07:12:13;;;;;;;10.00;5.07;;;;;;;11.53;42.13;95167.44;5027448;28;20629;-78
2023/03/19 07:14:40;;;;;;;10.15;4.35;;;;;;;11.42;42.03;95174.31;5027842;28;20196;-77
2023/03/19 07:17:08;;;;;;;5.90;3.85;;;;;;;11.02;42.76;95179.88;5027478;28;20200;-79
2023/03/19 07:19:35;;;;;;;5.28;3.00;;;;;;;10.29;44.37;95178.66;5030540;28;20197;-78
2023/03/19 07:22:02;;;;;;;10.07;5.20;;;;;;;11.13;44.31;95170.31;5032160;28;20200;-79
2023/03/19 07:24:29;;;;;;;8.35;4.93;;;;;;;10.03;44.34;95177.72;5032087;28;20232;-81
2023/03/19 07:26:57;;;;;;;8.95;4.80;;;;;;;10.17;44.63;95170.31;5032629;28;20281;-81
2023/03/19 07:29:24;;;;;;;11.55;5.38;;;;;;;9.63;45.76;95169.50;5031560;28;20203;-76
2023/03/19 07:31:51;;;;;;;8.68;4.90;;;;;;;9.46;47.22;95167.47;5031047;28;20204;-78
2023/03/19 07:34:19;;;;;;;8.23;4.53;;;;;;;8.93;48.29;95180.84;5032377;28;20208;-78
2023/03/19 07:36:46;;;;;;;7.25;4.40;;;;;;;9.55;47.05;95171.06;5032261;28;20200;-81
2023/03/19 07:39:12;;;;;;;13.45;8.23;;;;;;;9.19;48.50;95184.59;5032268;28;20611;-81
2023/03/19 07:41:39;;;;;;;8.73;4.20;;;;;;;9.00;48.44;95178.56;5032076;28;20227;-79
2023/03/19 07:44:06;;;;;;;7.55;4.60;;;;;;;8.22;50.25;95182.25;5032044;28;20204;-76
2023/03/19 07:46:32;;;;;;;10.05;4.75;;;;;;;8.37;49.29;95173.09;5031764;28;20517;-76
2023/03/19 07:48:59;;;;;;;13.48;4.88;;;;;;;8.49;49.29;95187.69;5031094;28;20274;-76
2023/03/19 07:51:27;;;;;;;7.60;3.92;;;;;;;8.28;49.61;95178.38;5031796;28;20196;-76
2023/03/19 07:53:54;;;;;;;7.15;4.70;;;;;;;8.36;49.95;95183.09;5031427;28;20278;-75
2023/03/19 07:56:21;;;;;;;8.73;5.00;;;;;;;8.50;49.88;95177.69;5030850;28;20231;-80
2023/03/19 07:58:48;;;;;;;10.48;4.85;;;;;;;8.32;50.40;95182.13;5031728;28;20200;-79
2023/03/19 08:01:15;;;;;;;10.48;5.53;;;;;;;8.90;48.52;95184.97;5030721;28;20232;-77
2023/03/19 08:03:41;;;;;;;9.30;4.40;;;;;;;8.74;48.86;95178.31;5031308;28;20681;-75
2023/03/19 08:06:08;;;;;;;9.60;4.93;;;;;;;8.42;49.13;95181.91;5031787;28;20200;-79
2023/03/19 08:08:37;;;;;;;11.88;4.75;;;;;;;8.56;49.42;95181.91;5030845;28;20694;-76
2023/03/19 08:11:04;;;;;;;7.68;4.53;;;;;;;8.27;50.86;95184.06;5017656;28;20206;-77
2023/03/19 08:13:30;;;;;;;11.77;5.45;;;;;;;8.74;58.03;95178.31;5031647;28;20204;-80
2023/03/19 08:15:57;;;;;;;8.25;4.22;;;;;;;9.90;52.71;95166.66;5031564;28;20213;-81
2023/03/19 08:18:24;;;;;;;10.38;6.03;;;;;;;9.32;60.47;95176.75;5031079;28;20201;-79
2023/03/19 08:20:51;;;;;;;9.70;4.80;;;;;;;9.78;50.29;95163.72;5030836;28;20228;-81
2023/03/19 08:23:18;;;;;;;16.25;5.70;;;;;;;8.64;49.71;95183.88;5030286;28;20200;-78
2023/03/19 08:25:46;;;;;;;11.48;5.07;;;;;;;8.09;50.96;95177.66;5027986;28;20298;-77
2023/03/19 08:28:13;;;;;;;8.38;4.00;;;;;;;8.51;50.44;95174.69;5029864;28;20200;-77
2023/03/19 08:30:40;;;;;;;10.48;5.32;;;;;;;8.50;50.44;95183.91;5029055;28;20703;-78
2023/03/19 08:33:07;;;;;;;12.65;5.65;;;;;;;9.02;49.77;95178.25;5029521;28;21436;-76
2023/03/19 08:35:34;;;;;;;10.15;5.88;;;;;;;8.81;49.85;95181.38;5024332;28;20196;-75
2023/03/19 08:38:01;;;;;;;10.55;4.63;;;;;;;9.31;48.60;95175.13;5029392;28;20193;-76
2023/03/19 08:40:28;;;;;;;15.75;5.78;;;;;;;9.82;46.73;95167.41;5026610;28;20243;-76
2023/03/19 08:42:56;;;;;;;11.27;6.03;;;;;;;9.92;47.05;95160.94;5029739;28;20200;-79
2023/03/19 08:45:23;;;;;;;12.88;4.97;;;;;;;9.99;47.17;95162.09;5030066;28;20226;-78
2023/03/19 08:47:50;;;;;;;12.75;5.70;;;;;;;10.11;47.47;95155.31;5029697;28;20677;-78
2023/03/19 08:50:18;;;;;;;12.25;5.15;;;;;;;9.41;49.04;95154.09;5029170;28;20208;-78
2023/03/19 08:52:45;;;;;;;8.13;5.32;;;;;;;9.57;48.93;95159.91;5029430;28;20668;-79
2023/03/19 08:55:12;;;;;;;8.15;4.90;;;;;;;9.43;48.31;95156.50;5029801;28;20200;-77
2023/03/19 08:57:39;;;;;;;9.82;5.55;;;;;;;9.50;47.69;95143.34;5029530;28;20200;-77
2023/03/19 09:00:08;;;;;;;13.52;8.05;;;;;;;9.92;48.48;95142.00;5029967;28;20270;-76
2023/03/19 09:02:35;;;;;;;11.10;6.18;;;;;;;10.21;47.53;95133.41;5029084;28;20258;-75
2023/03/19 09:05:02;;;;;;;9.95;5.20;;;;;;;10.53;46.13;95127.59;5029847;28;20204;-78
2023/03/19 09:07:29;;;;;;;11.82;7.25;;;;;;;10.24;46.83;95135.50;5030191;28;20208;-77
2023/03/19 09:09:56;;;;;;;14.10;7.22;;;;;;;10.15;45.88;95131.91;5029338;28;20193;-78
2023/03/19 09:12:22;;;;;;;9.02;5.35;;;;;;;10.15;46.30;95129.19;5029275;28;20675;-76
2023/03/19 09:14:50;;;;;;;14.00;8.07;;;;;;;10.44;46.10;95121.38;5029524;28;20205;-77
2023/03/19 09:17:18;;;;;;;11.35;5.65;;;;;;;10.24;46.38;95122.75;5029315;28;20200;-77
2023/03/19 09:19:45;;;;;;;12.70;6.13;;;;;;;10.12;47.27;95129.81;5029453;28;20212;-76
2023/03/19 09:22:12;;;;;;;11.43;5.53;;;;;;;10.71;44.95;95124.94;5029371;28;20240;-79
2023/03/19 09:24:39;;;;;;;9.82;4.38;;;;;;;10.46;45.59;95121.88;5030163;28;20652;-79
2023/03/19 09:27:06;;;;;;;7.80;5.28;;;;;;;10.19;46.47;95114.78;5029339;28;20258;-78
2023/03/19 09:29:33;;;;;;;10.95;5.63;;;;;;;10.29;45.21;95124.50;5029087;28;20203;-77
2023/03/19 09:32:00;;;;;;;11.27;5.15;;;;;;;10.36;45.57;95119.47;5028864;28;20678;-77
2023/03/19 09:34:28;;;;;;;8.90;5.72;;;;;;;10.11;45.71;95122.84;5027976;28;20287;-78
2023/03/19 09:36:55;;;;;;;7.68;5.50;;;;;;;10.06;45.96;95114.84;5028517;28;20598;-77
2023/03/19 09:39:22;;;;;;;7.53;3.95;;;;;;;10.25;46.13;95126.28;5028584;28;20287;-78
2023/03/19 09:42:09;;;;;;;11.85;5.75;;;;;;;10.84;46.56;95107.75;5023044;28;20230;-77
2023/03/19 09:44:38;;;;;;;12.00;5.50;;;;;;;11.14;45.78;95109.53;5026622;28;20648;-78
2023/03/19 09:47:22;;;;;;;10.05;6.05;;;;;;;11.37;44.00;95116.38;5027632;28;20212;-77
2023/03/19 09:49:53;;;;;;;13.63;6.57;;;;;;;11.37;43.12;95112.88;5028340;28;20243;-79
2023/03/19 09:52:30;;;;;;;15.63;6.25;;;;;;;10.64;43.40;95115.38;5027817;28;20258;-78
2023/03/19 09:55:01;;;;;;;6.18;3.10;;;;;;;10.38;44.80;95103.69;5017918;28;20200;-78
2023/03/19 09:57:28;;;;;;;11.75;5.60;;;;;;;10.35;44.79;95107.03;5029165;28;20210;-77
2023/03/19 09:59:55;;;;;;;11.13;5.30;;;;;;;10.66;44.45;95094.16;5028975;28;20268;-76
2023/03/19 10:02:37;;;;;;;13.00;7.57;;;;;;;10.73;44.45;95090.22;5020474;28;20834;-74
2023/03/19 10:05:15;;;;;;;17.33;9.02;;;;;;;10.89;43.87;95085.94;5023027;28;20779;-76
2023/03/19 10:08:15;;;;;;;13.15;9.05;;;;;;;11.36;43.82;95087.66;5028580;28;20832;-75
2023/03/19 10:10:51;;;;;;;13.20;6.22;;;;;;;11.81;42.13;95076.44;5023264;28;20196;-77
2023/03/19 10:13:36;;;;;;;13.15;7.50;;;;;;;11.36;41.91;95084.94;5028091;28;20230;-76
2023/03/19 10:16:05;;;;;;;12.68;6.93;;;;;;;11.42;42.38;95079.38;5016648;28;20228;-75
2023/03/19 10:18:38;;;;;;;12.65;8.23;;;;;;;11.21;42.89;95074.59;5028367;28;20203;-74
2023/03/19 10:21:12;;;;;;;14.90;8.93;;;;;;;11.19;42.69;95073.34;5027990;28;20224;-75
2023/03/19 10:23:45;;;;;;;14.55;8.38;;;;;;;11.75;42.13;95062.22;5026947;28;20628;-78
2023/03/19 10:26:15;;;;;;;12.63;8.48;;;;;;;12.15;41.09;95058.44;5028513;28;20204;-77
2023/03/19 10:28:45;;;;;;;13.88;8.02;;;;;;;12.22;43.18;95053.28;5028794;28;20208;-79
2023/03/19 10:31:28;;;;;;;13.13;7.03;;;;;;;12.26;39.89;95054.22;5027856;28;20239;-78
2023/03/19 10:34:19;;;;;;;11.85;7.65;;;;;;;12.07;40.78;95041.84;5028415;28;20201;-79
2023/03/19 10:36:47;;;;;;;13.80;8.52;;;;;;;12.38;43.16;95035.28;5028197;28;20200;-75
2023/03/19 10:39:17;;;;;;;13.55;8.35;;;;;;;12.86;40.13;95034.00;5028100;28;20571;-79
2023/03/19 10:41:55;;;;;;;13.15;8.57;;;;;;;12.60;40.53;95051.28;5028155;28;20568;-76
2023/03/19 10:44:29;;;;;;;15.93;8.95;;;;;;;12.20;40.66;95039.22;5028066;28;20197;-79
2023/03/19 10:46:58;;;;;;;17.25;10.25;;;;;;;12.33;40.91;95019.16;5028179;28;20203;-80
2023/03/19 10:49:25;;;;;;;12.43;8.38;;;;;;;12.41;40.65;95023.78;5028743;28;20200;-74
2023/03/19 10:51:57;;;;;;;13.23;8.38;;;;;;;12.80;41.13;95014.38;5028439;28;20198;-78
2023/03/19 10:54:25;;;;;;;11.65;7.55;;;;;;;12.77;40.33;95004.97;5027670;28;20870;-75
2023/03/19 10:56:56;;;;;;;12.73;8.85;;;;;;;12.77;39.98;95007.69;5028372;28;20204;-77
2023/03/19 10:59:25;;;;;;;12.20;7.18;;;;;;;12.94;39.05;95005.97;5028046;28;20720;-76
2023/03/19 11:01:58;;;;;;;12.60;7.78;;;;;;;12.80;39.84;94998.88;5027798;28;20232;-77
2023/03/19 11:04:27;;;;;;;10.85;7.57;;;;;;;13.11;39.36;94986.78;5014663;28;20211;-81
2023/03/19 11:07:01;;;;;;;19.55;10.88;;;;;;;13.44;39.59;94979.41;5027574;28;20239;-76
2023/03/19 11:09:34;;;;;;;17.05;8.93;;;;;;;13.94;38.47;94986.50;5019144;28;20215;-76
2023/03/19 11:12:08;;;;;;;12.93;8.10;;;;;;;14.34;37.79;94973.00;5023794;28;20200;-75
2023/03/19 11:14:39;;;;;;;13.70;8.05;;;;;;;14.76;38.06;94962.59;5017365;28;20286;-76
2023/03/19 11:17:18;;;;;;;17.10;8.63;;;;;;;14.91;36.33;94959.13;5016739;28;20287;-76
2023/03/19 11:19:51;;;;;;;13.05;7.50;;;;;;;14.59;36.94;94951.97;5027837;28;20219;-78
2023/03/19 11:22:22;;;;;;;13.70;8.63;;;;;;;14.61;37.62;94944.25;5027342;28;20329;-76
2023/03/19 11:24:51;;;;;;;15.38;7.95;;;;;;;14.17;38.17;94957.69;5027393;28;20766;-78
2023/03/19 11:27:18;;;;;;;14.80;7.50;;;;;;;14.42;37.56;94947.56;5027651;28;20204;-76
2023/03/19 11:29:46;;;;;;;12.82;7.60;;;;;;;14.55;37.93;94945.63;5022235;28;20196;-77
2023/03/19 11:32:34;;;;;;;16.75;8.63;;;;;;;15.07;36.04;94939.28;5027337;28;20200;-75
2023/03/19 11:35:06;;;;;;;14.27;8.60;;;;;;;15.13;36.61;94937.91;5026966;28;20283;-75
2023/03/19 11:37:50;;;;;;;14.00;8.10;;;;;;;15.21;37.02;94920.56;5015459;28;20279;-76